sensor_id;sensor_type;location;lat;lon;timestamp;P1;durP1;ratioP1;P2;durP2;ratioP2
55053;SDS011;40954;45.668;18.980;2023-03-14T00:00:37;11.63;;;7.40;;
55053;SDS011;40954;45.668;18.980;2023-03-14T00:03:03;10.82;;;7.30;;
55053;SDS011;40954;45.668;18.980;2023-03-14T00:05:29;11.45;;;7.75;;
55053;SDS011;40954;45.668;18.980;2023-03-14T00:07:55;11.13;;;7.85;;
55053;SDS011;40954;45.668;18.980;2023-03-14T00:10:21;10.18;;;7.65;;
55053;SDS011;40954;45.668;18.980;2023-03-14T00:12:47;12.75;;;7.97;;
55053;SDS011;40954;45.668;18.980;2023-03-14T00:15:13;10.23;;;7.15;;
55053;SDS011;40954;45.668;18.980;2023-03-14T00:17:42;11.93;;;7.90;;
55053;SDS011;40954;45.668;18.980;2023-03-14T00:20:08;8.80;;;7.18;;
55053;SDS011;40954;45.668;18.980;2023-03-14T00:22:37;11.07;;;7.55;;
55053;SDS011;40954;45.668;18.980;2023-03-14T00:25:04;12.90;;;8.05;;
55053;SDS011;40954;45.668;18.980;2023-03-14T00:27:30;15.43;;;8.30;;
55053;SDS011;40954;45.668;18.980;2023-03-14T00:29:56;14.35;;;7.72;;
55053;SDS011;40954;45.668;18.980;2023-03-14T00:32:22;12.73;;;7.47;;
55053;SDS011;40954;45.668;18.980;2023-03-14T00:34:48;12.43;;;7.85;;
55053;SDS011;40954;45.668;18.980;2023-03-14T00:37:14;15.73;;;11.30;;
55053;SDS011;40954;45.668;18.980;2023-03-14T00:39:40;26.60;;;20.58;;
55053;SDS011;40954;45.668;18.980;2023-03-14T00:42:06;29.15;;;24.38;;
55053;SDS011;40954;45.668;18.980;2023-03-14T00:44:32;26.48;;;19.73;;
55053;SDS011;40954;45.668;18.980;2023-03-14T00:46:58;20.73;;;15.25;;
55053;SDS011;40954;45.668;18.980;2023-03-14T00:49:25;19.48;;;14.18;;
55053;SDS011;40954;45.668;18.980;2023-03-14T00:51:51;18.63;;;13.02;;
55053;SDS011;40954;45.668;18.980;2023-03-14T00:54:18;18.30;;;13.07;;
55053;SDS011;40954;45.668;18.980;2023-03-14T00:56:44;17.55;;;12.73;;
55053;SDS011;40954;45.668;18.980;2023-03-14T00:59:10;15.38;;;12.15;;
55053;SDS011;40954;45.668;18.980;2023-03-14T01:01:36;26.08;;;21.48;;
55053;SDS011;40954;45.668;18.980;2023-03-14T01:04:02;30.92;;;27.63;;
55053;SDS011;40954;45.668;18.980;2023-03-14T01:06:28;28.05;;;23.30;;
55053;SDS011;40954;45.668;18.980;2023-03-14T01:08:55;18.60;;;15.95;;
55053;SDS011;40954;45.668;18.980;2023-03-14T01:11:22;20.27;;;14.05;;
55053;SDS011;40954;45.668;18.980;2023-03-14T01:13:48;14.02;;;9.23;;
55053;SDS011;40954;45.668;18.980;2023-03-14T01:16:15;11.80;;;7.47;;
55053;SDS011;40954;45.668;18.980;2023-03-14T01:18:42;10.68;;;7.53;;
55053;SDS011;40954;45.668;18.980;2023-03-14T01:21:13;13.15;;;7.70;;
55053;SDS011;40954;45.668;18.980;2023-03-14T01:23:40;11.00;;;7.97;;
55053;SDS011;40954;45.668;18.980;2023-03-14T01:26:10;11.75;;;8.38;;
55053;SDS011;40954;45.668;18.980;2023-03-14T01:28:36;11.60;;;7.70;;
55053;SDS011;40954;45.668;18.980;2023-03-14T01:31:06;12.63;;;7.45;;
55053;SDS011;40954;45.668;18.980;2023-03-14T01:33:32;11.05;;;7.70;;
55053;SDS011;40954;45.668;18.980;2023-03-14T01:35:59;12.57;;;7.75;;
55053;SDS011;40954;45.668;18.980;2023-03-14T01:38:27;10.32;;;7.13;;
55053;SDS011;40954;45.668;18.980;2023-03-14T01:40:53;13.77;;;8.23;;
55053;SDS011;40954;45.668;18.980;2023-03-14T01:43:19;12.25;;;8.52;;
55053;SDS011;40954;45.668;18.980;2023-03-14T01:48:24;14.70;;;8.98;;
55053;SDS011;40954;45.668;18.980;2023-03-14T01:50:51;13.13;;;9.07;;
55053;SDS011;40954;45.668;18.980;2023-03-14T01:53:17;13.57;;;8.68;;
55053;SDS011;40954;45.668;18.980;2023-03-14T01:55:46;14.65;;;9.68;;
55053;SDS011;40954;45.668;18.980;2023-03-14T01:58:12;13.68;;;8.80;;
55053;SDS011;40954;45.668;18.980;2023-03-14T02:00:39;18.80;;;9.40;;
55053;SDS011;40954;45.668;18.980;2023-03-14T02:03:06;15.98;;;9.00;;
55053;SDS011;40954;45.668;18.980;2023-03-14T02:05:34;13.48;;;8.10;;
55053;SDS011;40954;45.668;18.980;2023-03-14T02:08:02;13.57;;;8.00;;
55053;SDS011;40954;45.668;18.980;2023-03-14T02:10:33;12.68;;;8.38;;
55053;SDS011;40954;45.668;18.980;2023-03-14T02:13:01;12.88;;;8.15;;
55053;SDS011;40954;45.668;18.980;2023-03-14T02:15:27;13.35;;;7.25;;
55053;SDS011;40954;45.668;18.980;2023-03-14T02:17:53;12.10;;;7.35;;
55053;SDS011;40954;45.668;18.980;2023-03-14T02:22:45;10.55;;;7.40;;
55053;SDS011;40954;45.668;18.980;2023-03-14T02:27:47;15.90;;;8.43;;
55053;SDS011;40954;45.668;18.980;2023-03-14T02:30:18;11.07;;;7.20;;
55053;SDS011;40954;45.668;18.980;2023-03-14T02:32:46;11.27;;;6.78;;
55053;SDS011;40954;45.668;18.980;2023-03-14T02:35:14;13.07;;;7.68;;
55053;SDS011;40954;45.668;18.980;2023-03-14T02:37:43;9.73;;;7.60;;
55053;SDS011;40954;45.668;18.980;2023-03-14T02:40:11;15.07;;;8.68;;
55053;SDS011;40954;45.668;18.980;2023-03-14T02:42:37;11.80;;;7.78;;
55053;SDS011;40954;45.668;18.980;2023-03-14T02:47:32;14.15;;;8.95;;
55053;SDS011;40954;45.668;18.980;2023-03-14T02:50:04;12.88;;;8.18;;
55053;SDS011;40954;45.668;18.980;2023-03-14T02:52:31;12.30;;;8.45;;
55053;SDS011;40954;45.668;18.980;2023-03-14T02:54:57;14.30;;;8.30;;
55053;SDS011;40954;45.668;18.980;2023-03-14T02:57:23;13.35;;;8.10;;
55053;SDS011;40954;45.668;18.980;2023-03-14T02:59:49;11.63;;;7.78;;
55053;SDS011;40954;45.668;18.980;2023-03-14T03:02:16;10.98;;;7.50;;
55053;SDS011;40954;45.668;18.980;2023-03-14T03:04:41;11.43;;;8.00;;
55053;SDS011;40954;45.668;18.980;2023-03-14T03:07:08;12.90;;;7.60;;
55053;SDS011;40954;45.668;18.980;2023-03-14T03:09:34;11.30;;;8.15;;
55053;SDS011;40954;45.668;18.980;2023-03-14T03:12:00;12.57;;;8.00;;
55053;SDS011;40954;45.668;18.980;2023-03-14T03:14:26;12.65;;;7.93;;
55053;SDS011;40954;45.668;18.980;2023-03-14T03:16:52;10.38;;;7.60;;
55053;SDS011;40954;45.668;18.980;2023-03-14T03:19:18;10.95;;;7.75;;
55053;SDS011;40954;45.668;18.980;2023-03-14T03:21:44;10.75;;;7.38;;
55053;SDS011;40954;45.668;18.980;2023-03-14T03:24:10;9.90;;;7.35;;
55053;SDS011;40954;45.668;18.980;2023-03-14T03:26:36;12.27;;;7.60;;
55053;SDS011;40954;45.668;18.980;2023-03-14T03:29:02;9.68;;;7.18;;
55053;SDS011;40954;45.668;18.980;2023-03-14T03:31:28;11.93;;;7.20;;
55053;SDS011;40954;45.668;18.980;2023-03-14T03:33:55;9.93;;;6.35;;
55053;SDS011;40954;45.668;18.980;2023-03-14T03:36:22;10.77;;;6.90;;
55053;SDS011;40954;45.668;18.980;2023-03-14T03:38:48;10.60;;;6.72;;
55053;SDS011;40954;45.668;18.980;2023-03-14T03:41:14;9.50;;;6.50;;
55053;SDS011;40954;45.668;18.980;2023-03-14T03:43:40;9.15;;;5.63;;
55053;SDS011;40954;45.668;18.980;2023-03-14T03:46:07;10.75;;;5.85;;
55053;SDS011;40954;45.668;18.980;2023-03-14T03:48:33;10.10;;;5.65;;
55053;SDS011;40954;45.668;18.980;2023-03-14T03:51:00;7.50;;;5.53;;
55053;SDS011;40954;45.668;18.980;2023-03-14T03:53:26;9.25;;;6.32;;
55053;SDS011;40954;45.668;18.980;2023-03-14T03:55:52;8.48;;;6.07;;
55053;SDS011;40954;45.668;18.980;2023-03-14T03:58:18;11.00;;;6.43;;
55053;SDS011;40954;45.668;18.980;2023-03-14T04:00:44;10.02;;;5.68;;
55053;SDS011;40954;45.668;18.980;2023-03-14T04:03:11;6.88;;;5.22;;
55053;SDS011;40954;45.668;18.980;2023-03-14T04:05:37;7.68;;;5.05;;
55053;SDS011;40954;45.668;18.980;2023-03-14T04:08:03;6.60;;;5.55;;
55053;SDS011;40954;45.668;18.980;2023-03-14T04:10:30;9.07;;;5.68;;
55053;SDS011;40954;45.668;18.980;2023-03-14T04:12:59;8.98;;;5.22;;
55053;SDS011;40954;45.668;18.980;2023-03-14T04:15:25;7.75;;;4.95;;
55053;SDS011;40954;45.668;18.980;2023-03-14T04:17:51;8.02;;;5.60;;
55053;SDS011;40954;45.668;18.980;2023-03-14T04:20:17;7.10;;;5.15;;
55053;SDS011;40954;45.668;18.980;2023-03-14T04:22:43;9.40;;;5.78;;
55053;SDS011;40954;45.668;18.980;2023-03-14T04:25:09;6.35;;;5.10;;
55053;SDS011;40954;45.668;18.980;2023-03-14T04:27:35;6.05;;;5.10;;
55053;SDS011;40954;45.668;18.980;2023-03-14T04:30:01;7.75;;;5.15;;
55053;SDS011;40954;45.668;18.980;2023-03-14T04:32:27;8.57;;;5.50;;
55053;SDS011;40954;45.668;18.980;2023-03-14T04:34:53;8.35;;;5.05;;
55053;SDS011;40954;45.668;18.980;2023-03-14T04:37:19;10.68;;;5.55;;
55053;SDS011;40954;45.668;18.980;2023-03-14T04:39:45;9.57;;;4.82;;
55053;SDS011;40954;45.668;18.980;2023-03-14T04:42:11;9.00;;;5.20;;
55053;SDS011;40954;45.668;18.980;2023-03-14T04:44:37;9.93;;;5.25;;
55053;SDS011;40954;45.668;18.980;2023-03-14T04:47:03;11.00;;;5.70;;
55053;SDS011;40954;45.668;18.980;2023-03-14T04:49:29;7.70;;;5.22;;
55053;SDS011;40954;45.668;18.980;2023-03-14T04:51:55;9.00;;;5.32;;
55053;SDS011;40954;45.668;18.980;2023-03-14T04:54:21;9.50;;;5.28;;
55053;SDS011;40954;45.668;18.980;2023-03-14T04:56:47;6.35;;;4.78;;
55053;SDS011;40954;45.668;18.980;2023-03-14T04:59:13;6.93;;;4.70;;
55053;SDS011;40954;45.668;18.980;2023-03-14T05:01:39;6.68;;;5.00;;
55053;SDS011;40954;45.668;18.980;2023-03-14T05:04:06;8.20;;;6.03;;
55053;SDS011;40954;45.668;18.980;2023-03-14T05:06:32;7.38;;;5.22;;
55053;SDS011;40954;45.668;18.980;2023-03-14T05:08:58;7.82;;;4.88;;
55053;SDS011;40954;45.668;18.980;2023-03-14T05:11:24;10.65;;;5.63;;
55053;SDS011;40954;45.668;18.980;2023-03-14T05:13:50;6.72;;;5.50;;
55053;SDS011;40954;45.668;18.980;2023-03-14T05:16:16;9.75;;;5.50;;
55053;SDS011;40954;45.668;18.980;2023-03-14T05:18:42;11.23;;;5.55;;
55053;SDS011;40954;45.668;18.980;2023-03-14T05:21:08;10.43;;;6.47;;
55053;SDS011;40954;45.668;18.980;2023-03-14T05:23:34;10.13;;;6.72;;
55053;SDS011;40954;45.668;18.980;2023-03-14T05:26:00;11.43;;;6.82;;
55053;SDS011;40954;45.668;18.980;2023-03-14T05:28:26;12.32;;;6.93;;
55053;SDS011;40954;45.668;18.980;2023-03-14T05:30:52;11.48;;;7.28;;
55053;SDS011;40954;45.668;18.980;2023-03-14T05:33:18;10.68;;;8.20;;
55053;SDS011;40954;45.668;18.980;2023-03-14T05:35:44;13.35;;;7.63;;
55053;SDS011;40954;45.668;18.980;2023-03-14T05:38:10;10.60;;;7.10;;
55053;SDS011;40954;45.668;18.980;2023-03-14T05:40:36;11.32;;;6.85;;
55053;SDS011;40954;45.668;18.980;2023-03-14T05:43:02;14.38;;;6.43;;
55053;SDS011;40954;45.668;18.980;2023-03-14T05:45:28;7.32;;;5.28;;
55053;SDS011;40954;45.668;18.980;2023-03-14T05:47:54;8.00;;;5.53;;
55053;SDS011;40954;45.668;18.980;2023-03-14T05:50:20;12.20;;;5.30;;
55053;SDS011;40954;45.668;18.980;2023-03-14T05:52:46;8.13;;;5.45;;
55053;SDS011;40954;45.668;18.980;2023-03-14T05:55:12;9.98;;;6.47;;
55053;SDS011;40954;45.668;18.980;2023-03-14T05:57:38;13.15;;;5.88;;
55053;SDS011;40954;45.668;18.980;2023-03-14T06:00:04;9.40;;;6.03;;
55053;SDS011;40954;45.668;18.980;2023-03-14T06:02:30;15.13;;;7.68;;
55053;SDS011;40954;45.668;18.980;2023-03-14T06:04:56;20.42;;;11.85;;
55053;SDS011;40954;45.668;18.980;2023-03-14T06:07:22;21.38;;;12.52;;
55053;SDS011;40954;45.668;18.980;2023-03-14T06:09:48;14.82;;;9.93;;
55053;SDS011;40954;45.668;18.980;2023-03-14T06:12:14;18.90;;;12.60;;
55053;SDS011;40954;45.668;18.980;2023-03-14T06:14:40;18.67;;;11.15;;
55053;SDS011;40954;45.668;18.980;2023-03-14T06:17:06;17.33;;;11.25;;
55053;SDS011;40954;45.668;18.980;2023-03-14T06:19:32;18.48;;;11.88;;
55053;SDS011;40954;45.668;18.980;2023-03-14T06:21:58;15.55;;;10.65;;
55053;SDS011;40954;45.668;18.980;2023-03-14T06:24:24;15.73;;;10.05;;
55053;SDS011;40954;45.668;18.980;2023-03-14T06:26:50;13.82;;;7.75;;
55053;SDS011;40954;45.668;18.980;2023-03-14T06:29:16;8.25;;;5.85;;
55053;SDS011;40954;45.668;18.980;2023-03-14T06:31:42;8.88;;;6.18;;
55053;SDS011;40954;45.668;18.980;2023-03-14T06:34:08;7.85;;;5.28;;
55053;SDS011;40954;45.668;18.980;2023-03-14T06:36:34;7.10;;;5.78;;
55053;SDS011;40954;45.668;18.980;2023-03-14T06:39:00;15.75;;;6.65;;
55053;SDS011;40954;45.668;18.980;2023-03-14T06:41:26;10.85;;;7.40;;
55053;SDS011;40954;45.668;18.980;2023-03-14T06:43:52;15.07;;;8.15;;
55053;SDS011;40954;45.668;18.980;2023-03-14T06:46:18;16.15;;;8.15;;
55053;SDS011;40954;45.668;18.980;2023-03-14T06:48:44;17.25;;;8.00;;
55053;SDS011;40954;45.668;18.980;2023-03-14T06:51:10;11.25;;;6.32;;
55053;SDS011;40954;45.668;18.980;2023-03-14T06:53:36;17.73;;;8.18;;
55053;SDS011;40954;45.668;18.980;2023-03-14T06:56:02;17.83;;;9.48;;
55053;SDS011;40954;45.668;18.980;2023-03-14T06:58:28;13.15;;;8.65;;
55053;SDS011;40954;45.668;18.980;2023-03-14T07:00:54;13.68;;;8.57;;
55053;SDS011;40954;45.668;18.980;2023-03-14T07:03:22;13.32;;;8.73;;
55053;SDS011;40954;45.668;18.980;2023-03-14T07:05:48;12.88;;;7.38;;
55053;SDS011;40954;45.668;18.980;2023-03-14T07:08:14;16.13;;;8.05;;
55053;SDS011;40954;45.668;18.980;2023-03-14T07:10:41;18.25;;;8.73;;
55053;SDS011;40954;45.668;18.980;2023-03-14T07:13:07;38.80;;;22.38;;
55053;SDS011;40954;45.668;18.980;2023-03-14T07:15:33;43.55;;;26.40;;
55053;SDS011;40954;45.668;18.980;2023-03-14T07:17:59;20.02;;;16.63;;
55053;SDS011;40954;45.668;18.980;2023-03-14T07:20:25;12.20;;;9.48;;
55053;SDS011;40954;45.668;18.980;2023-03-14T07:22:51;13.02;;;8.43;;
55053;SDS011;40954;45.668;18.980;2023-03-14T07:25:17;8.90;;;6.90;;
55053;SDS011;40954;45.668;18.980;2023-03-14T07:27:44;7.70;;;5.22;;
55053;SDS011;40954;45.668;18.980;2023-03-14T07:30:10;7.00;;;5.00;;
55053;SDS011;40954;45.668;18.980;2023-03-14T07:32:37;7.20;;;4.82;;
55053;SDS011;40954;45.668;18.980;2023-03-14T07:35:03;9.23;;;5.10;;
55053;SDS011;40954;45.668;18.980;2023-03-14T07:37:29;7.82;;;5.65;;
55053;SDS011;40954;45.668;18.980;2023-03-14T07:39:55;14.15;;;6.72;;
55053;SDS011;40954;45.668;18.980;2023-03-14T07:42:21;8.85;;;6.70;;
55053;SDS011;40954;45.668;18.980;2023-03-14T07:44:47;13.82;;;7.75;;
55053;SDS011;40954;45.668;18.980;2023-03-14T07:47:13;16.40;;;8.75;;
55053;SDS011;40954;45.668;18.980;2023-03-14T07:49:39;14.38;;;8.63;;
55053;SDS011;40954;45.668;18.980;2023-03-14T07:52:05;12.32;;;8.65;;
55053;SDS011;40954;45.668;18.980;2023-03-14T07:54:31;16.50;;;10.77;;
55053;SDS011;40954;45.668;18.980;2023-03-14T07:56:57;20.15;;;11.82;;
55053;SDS011;40954;45.668;18.980;2023-03-14T07:59:26;19.25;;;10.98;;
55053;SDS011;40954;45.668;18.980;2023-03-14T08:01:52;14.80;;;9.82;;
55053;SDS011;40954;45.668;18.980;2023-03-14T08:04:19;18.15;;;10.30;;
55053;SDS011;40954;45.668;18.980;2023-03-14T08:06:44;20.85;;;12.40;;
55053;SDS011;40954;45.668;18.980;2023-03-14T08:09:10;16.13;;;10.57;;
55053;SDS011;40954;45.668;18.980;2023-03-14T08:11:36;16.35;;;9.90;;
55053;SDS011;40954;45.668;18.980;2023-03-14T08:14:02;10.25;;;7.60;;
55053;SDS011;40954;45.668;18.980;2023-03-14T08:16:28;10.05;;;5.97;;
55053;SDS011;40954;45.668;18.980;2023-03-14T08:18:54;6.18;;;4.50;;
55053;SDS011;40954;45.668;18.980;2023-03-14T08:21:21;9.68;;;5.10;;
55053;SDS011;40954;45.668;18.980;2023-03-14T08:23:47;7.53;;;5.60;;
55053;SDS011;40954;45.668;18.980;2023-03-14T08:26:13;7.95;;;5.10;;
55053;SDS011;40954;45.668;18.980;2023-03-14T08:28:39;5.80;;;5.05;;
55053;SDS011;40954;45.668;18.980;2023-03-14T08:31:05;10.23;;;5.40;;
55053;SDS011;40954;45.668;18.980;2023-03-14T08:33:31;11.60;;;7.30;;
55053;SDS011;40954;45.668;18.980;2023-03-14T08:35:57;16.65;;;10.13;;
55053;SDS011;40954;45.668;18.980;2023-03-14T08:38:24;15.02;;;9.50;;
55053;SDS011;40954;45.668;18.980;2023-03-14T08:40:54;24.60;;;13.13;;
55053;SDS011;40954;45.668;18.980;2023-03-14T08:43:21;22.73;;;14.57;;
55053;SDS011;40954;45.668;18.980;2023-03-14T08:45:47;22.80;;;15.98;;
55053;SDS011;40954;45.668;18.980;2023-03-14T08:48:12;14.27;;;9.82;;
55053;SDS011;40954;45.668;18.980;2023-03-14T08:50:38;13.52;;;9.23;;
55053;SDS011;40954;45.668;18.980;2023-03-14T08:53:04;11.63;;;8.20;;
55053;SDS011;40954;45.668;18.980;2023-03-14T08:55:29;8.45;;;6.05;;
55053;SDS011;40954;45.668;18.980;2023-03-14T08:57:55;9.10;;;5.82;;
55053;SDS011;40954;45.668;18.980;2023-03-14T09:00:21;6.47;;;4.30;;
55053;SDS011;40954;45.668;18.980;2023-03-14T09:02:46;5.95;;;4.00;;
55053;SDS011;40954;45.668;18.980;2023-03-14T09:05:12;6.13;;;4.80;;
55053;SDS011;40954;45.668;18.980;2023-03-14T09:07:39;6.22;;;5.00;;
55053;SDS011;40954;45.668;18.980;2023-03-14T09:10:05;5.30;;;4.15;;
55053;SDS011;40954;45.668;18.980;2023-03-14T09:12:31;8.15;;;4.75;;
55053;SDS011;40954;45.668;18.980;2023-03-14T09:14:57;5.30;;;3.28;;
55053;SDS011;40954;45.668;18.980;2023-03-14T09:17:23;4.90;;;3.40;;
55053;SDS011;40954;45.668;18.980;2023-03-14T09:19:49;5.93;;;3.08;;
55053;SDS011;40954;45.668;18.980;2023-03-14T09:22:15;7.03;;;3.90;;
55053;SDS011;40954;45.668;18.980;2023-03-14T09:24:41;7.72;;;4.50;;
55053;SDS011;40954;45.668;18.980;2023-03-14T09:27:07;5.28;;;3.17;;
55053;SDS011;40954;45.668;18.980;2023-03-14T09:29:33;5.55;;;3.47;;
55053;SDS011;40954;45.668;18.980;2023-03-14T09:31:59;5.60;;;4.03;;
55053;SDS011;40954;45.668;18.980;2023-03-14T09:34:25;5.43;;;4.43;;
55053;SDS011;40954;45.668;18.980;2023-03-14T09:36:51;8.20;;;3.83;;
55053;SDS011;40954;45.668;18.980;2023-03-14T09:39:17;4.13;;;3.60;;
55053;SDS011;40954;45.668;18.980;2023-03-14T09:41:43;4.38;;;3.40;;
55053;SDS011;40954;45.668;18.980;2023-03-14T09:46:36;5.47;;;4.00;;
55053;SDS011;40954;45.668;18.980;2023-03-14T09:49:07;5.88;;;4.28;;
55053;SDS011;40954;45.668;18.980;2023-03-14T09:54:01;6.32;;;3.65;;
55053;SDS011;40954;45.668;18.980;2023-03-14T09:56:28;5.53;;;3.83;;
55053;SDS011;40954;45.668;18.980;2023-03-14T09:58:56;6.75;;;5.07;;
55053;SDS011;40954;45.668;18.980;2023-03-14T10:01:25;4.90;;;3.97;;
55053;SDS011;40954;45.668;18.980;2023-03-14T10:03:52;6.20;;;4.47;;
55053;SDS011;40954;45.668;18.980;2023-03-14T10:06:19;8.20;;;5.05;;
55053;SDS011;40954;45.668;18.980;2023-03-14T10:08:45;10.35;;;5.10;;
55053;SDS011;40954;45.668;18.980;2023-03-14T10:11:15;5.90;;;3.95;;
55053;SDS011;40954;45.668;18.980;2023-03-14T10:13:50;8.23;;;5.65;;
55053;SDS011;40954;45.668;18.980;2023-03-14T10:16:30;6.57;;;4.80;;
55053;SDS011;40954;45.668;18.980;2023-03-14T10:19:09;10.20;;;6.13;;
55053;SDS011;40954;45.668;18.980;2023-03-14T10:21:37;8.73;;;4.80;;
55053;SDS011;40954;45.668;18.980;2023-03-14T10:24:49;7.72;;;4.20;;
55053;SDS011;40954;45.668;18.980;2023-03-14T10:26:58;6.90;;;4.53;;
55053;SDS011;40954;45.668;18.980;2023-03-14T10:29:26;7.32;;;4.95;;
55053;SDS011;40954;45.668;18.980;2023-03-14T10:34:23;6.88;;;5.57;;
55053;SDS011;40954;45.668;18.980;2023-03-14T10:36:54;7.88;;;4.72;;
55053;SDS011;40954;45.668;18.980;2023-03-14T10:42:05;5.22;;;3.13;;
55053;SDS011;40954;45.668;18.980;2023-03-14T10:44:36;5.38;;;3.85;;
55053;SDS011;40954;45.668;18.980;2023-03-14T10:47:03;6.57;;;3.92;;
55053;SDS011;40954;45.668;18.980;2023-03-14T10:49:34;6.50;;;4.53;;
55053;SDS011;40954;45.668;18.980;2023-03-14T10:54:38;4.18;;;3.40;;
55053;SDS011;40954;45.668;18.980;2023-03-14T10:57:04;6.40;;;4.65;;
55053;SDS011;40954;45.668;18.980;2023-03-14T10:59:35;4.93;;;3.78;;
55053;SDS011;40954;45.668;18.980;2023-03-14T11:09:52;6.00;;;3.97;;
55053;SDS011;40954;45.668;18.980;2023-03-14T11:12:28;5.80;;;4.35;;
55053;SDS011;40954;45.668;18.980;2023-03-14T11:15:01;4.30;;;3.83;;
55053;SDS011;40954;45.668;18.980;2023-03-14T11:20:13;6.15;;;3.85;;
55053;SDS011;40954;45.668;18.980;2023-03-14T11:25:29;4.10;;;2.90;;
55053;SDS011;40954;45.668;18.980;2023-03-14T11:28:08;3.55;;;3.20;;
55053;SDS011;40954;45.668;18.980;2023-03-14T11:30:38;3.47;;;2.72;;
55053;SDS011;40954;45.668;18.980;2023-03-14T11:40:33;2.45;;;2.25;;
55053;SDS011;40954;45.668;18.980;2023-03-14T11:43:11;3.90;;;2.90;;
55053;SDS011;40954;45.668;18.980;2023-03-14T11:45:39;5.03;;;4.53;;
55053;SDS011;40954;45.668;18.980;2023-03-14T11:48:10;3.78;;;3.42;;
55053;SDS011;40954;45.668;18.980;2023-03-14T11:50:37;7.50;;;6.82;;
55053;SDS011;40954;45.668;18.980;2023-03-14T11:53:05;5.75;;;3.95;;
55053;SDS011;40954;45.668;18.980;2023-03-14T11:55:32;3.05;;;2.53;;
55053;SDS011;40954;45.668;18.980;2023-03-14T11:58:23;2.78;;;2.55;;
55053;SDS011;40954;45.668;18.980;2023-03-14T12:00:46;2.63;;;2.42;;
55053;SDS011;40954;45.668;18.980;2023-03-14T12:08:41;3.65;;;3.35;;
55053;SDS011;40954;45.668;18.980;2023-03-14T12:13:38;2.60;;;2.40;;
55053;SDS011;40954;45.668;18.980;2023-03-14T12:16:05;4.95;;;2.47;;
55053;SDS011;40954;45.668;18.980;2023-03-14T12:18:33;3.20;;;2.90;;
55053;SDS011;40954;45.668;18.980;2023-03-14T12:21:00;6.40;;;3.38;;
55053;SDS011;40954;45.668;18.980;2023-03-14T12:23:27;4.78;;;3.15;;
55053;SDS011;40954;45.668;18.980;2023-03-14T12:34:40;5.97;;;3.28;;
55053;SDS011;40954;45.668;18.980;2023-03-14T12:41:44;4.43;;;3.85;;
55053;SDS011;40954;45.668;18.980;2023-03-14T12:49:46;4.75;;;3.13;;
55053;SDS011;40954;45.668;18.980;2023-03-14T12:52:14;6.43;;;3.85;;
55053;SDS011;40954;45.668;18.980;2023-03-14T12:54:55;7.25;;;3.90;;
55053;SDS011;40954;45.668;18.980;2023-03-14T12:57:25;5.40;;;4.65;;
55053;SDS011;40954;45.668;18.980;2023-03-14T12:59:57;4.40;;;3.92;;
55053;SDS011;40954;45.668;18.980;2023-03-14T13:02:25;3.85;;;2.75;;
55053;SDS011;40954;45.668;18.980;2023-03-14T13:08:02;4.00;;;2.80;;
55053;SDS011;40954;45.668;18.980;2023-03-14T13:12:49;3.30;;;2.80;;
55053;SDS011;40954;45.668;18.980;2023-03-14T13:15:59;4.57;;;3.35;;
55053;SDS011;40954;45.668;18.980;2023-03-14T13:18:10;6.50;;;4.95;;
55053;SDS011;40954;45.668;18.980;2023-03-14T13:20:37;4.53;;;3.22;;
55053;SDS011;40954;45.668;18.980;2023-03-14T13:23:04;3.53;;;3.22;;
55053;SDS011;40954;45.668;18.980;2023-03-14T13:25:34;4.70;;;4.05;;
55053;SDS011;40954;45.668;18.980;2023-03-14T13:28:00;6.85;;;3.22;;
55053;SDS011;40954;45.668;18.980;2023-03-14T13:30:28;7.72;;;6.00;;
55053;SDS011;40954;45.668;18.980;2023-03-14T13:32:55;5.05;;;3.28;;
55053;SDS011;40954;45.668;18.980;2023-03-14T13:35:37;3.60;;;2.85;;
55053;SDS011;40954;45.668;18.980;2023-03-14T13:38:04;4.15;;;3.28;;
55053;SDS011;40954;45.668;18.980;2023-03-14T13:40:33;4.03;;;3.15;;
55053;SDS011;40954;45.668;18.980;2023-03-14T13:43:04;4.53;;;2.55;;
55053;SDS011;40954;45.668;18.980;2023-03-14T13:45:31;4.22;;;3.10;;
55053;SDS011;40954;45.668;18.980;2023-03-14T13:47:57;5.05;;;2.83;;
55053;SDS011;40954;45.668;18.980;2023-03-14T13:50:23;3.92;;;3.10;;
55053;SDS011;40954;45.668;18.980;2023-03-14T13:52:54;4.72;;;3.67;;
55053;SDS011;40954;45.668;18.980;2023-03-14T13:55:21;4.57;;;3.53;;
55053;SDS011;40954;45.668;18.980;2023-03-14T13:57:53;4.82;;;4.13;;
55053;SDS011;40954;45.668;18.980;2023-03-14T14:02:46;5.13;;;2.80;;
55053;SDS011;40954;45.668;18.980;2023-03-14T14:05:13;3.63;;;3.00;;
55053;SDS011;40954;45.668;18.980;2023-03-14T14:07:40;4.63;;;4.05;;
55053;SDS011;40954;45.668;18.980;2023-03-14T14:10:09;3.83;;;3.50;;
55053;SDS011;40954;45.668;18.980;2023-03-14T14:12:37;5.05;;;3.25;;
55053;SDS011;40954;45.668;18.980;2023-03-14T14:15:04;5.15;;;3.50;;
55053;SDS011;40954;45.668;18.980;2023-03-14T14:17:36;3.42;;;3.13;;
55053;SDS011;40954;45.668;18.980;2023-03-14T14:20:04;5.22;;;3.38;;
55053;SDS011;40954;45.668;18.980;2023-03-14T14:22:32;5.30;;;3.22;;
55053;SDS011;40954;45.668;18.980;2023-03-14T14:24:59;4.50;;;2.75;;
55053;SDS011;40954;45.668;18.980;2023-03-14T14:27:29;4.25;;;2.78;;
55053;SDS011;40954;45.668;18.980;2023-03-14T14:30:42;6.38;;;3.70;;
55053;SDS011;40954;45.668;18.980;2023-03-14T14:32:50;4.72;;;4.38;;
55053;SDS011;40954;45.668;18.980;2023-03-14T14:35:23;6.10;;;3.50;;
55053;SDS011;40954;45.668;18.980;2023-03-14T14:37:49;9.77;;;4.32;;
55053;SDS011;40954;45.668;18.980;2023-03-14T14:40:19;4.45;;;3.33;;
55053;SDS011;40954;45.668;18.980;2023-03-14T14:42:46;4.28;;;3.40;;
55053;SDS011;40954;45.668;18.980;2023-03-14T14:45:13;7.30;;;3.88;;
55053;SDS011;40954;45.668;18.980;2023-03-14T14:47:50;6.32;;;3.42;;
55053;SDS011;40954;45.668;18.980;2023-03-14T14:50:30;3.70;;;3.25;;
55053;SDS011;40954;45.668;18.980;2023-03-14T14:53:13;9.40;;;4.45;;
55053;SDS011;40954;45.668;18.980;2023-03-14T14:55:45;4.18;;;3.53;;
55053;SDS011;40954;45.668;18.980;2023-03-14T15:00:50;5.95;;;4.25;;
55053;SDS011;40954;45.668;18.980;2023-03-14T15:03:17;6.28;;;4.15;;
55053;SDS011;40954;45.668;18.980;2023-03-14T15:05:43;6.57;;;4.20;;
55053;SDS011;40954;45.668;18.980;2023-03-14T15:08:10;13.55;;;5.05;;
55053;SDS011;40954;45.668;18.980;2023-03-14T15:10:37;8.77;;;4.55;;
55053;SDS011;40954;45.668;18.980;2023-03-14T15:13:03;7.43;;;4.35;;
55053;SDS011;40954;45.668;18.980;2023-03-14T15:15:29;6.22;;;4.40;;
55053;SDS011;40954;45.668;18.980;2023-03-14T15:17:55;5.10;;;3.47;;
55053;SDS011;40954;45.668;18.980;2023-03-14T15:20:21;6.68;;;4.45;;
55053;SDS011;40954;45.668;18.980;2023-03-14T15:22:50;6.10;;;4.03;;
55053;SDS011;40954;45.668;18.980;2023-03-14T15:25:16;6.93;;;4.82;;
55053;SDS011;40954;45.668;18.980;2023-03-14T15:27:42;5.40;;;4.68;;
55053;SDS011;40954;45.668;18.980;2023-03-14T15:30:10;7.60;;;5.35;;
55053;SDS011;40954;45.668;18.980;2023-03-14T15:32:36;8.80;;;6.10;;
55053;SDS011;40954;45.668;18.980;2023-03-14T15:35:02;11.15;;;6.65;;
55053;SDS011;40954;45.668;18.980;2023-03-14T15:37:29;11.48;;;10.20;;
55053;SDS011;40954;45.668;18.980;2023-03-14T15:39:55;10.32;;;6.97;;
55053;SDS011;40954;45.668;18.980;2023-03-14T15:42:24;10.05;;;6.35;;
55053;SDS011;40954;45.668;18.980;2023-03-14T15:44:50;9.20;;;7.35;;
55053;SDS011;40954;45.668;18.980;2023-03-14T15:47:16;7.90;;;7.10;;